sensor_id;sensor_type;location;lat;lon;timestamp;P1;durP1;ratioP1;P2;durP2;ratioP2
12654;SDS011;6392;44.644;11.448;2024-03-02T00:01:34;6.97;;;3.80;;
12654;SDS011;6392;44.644;11.448;2024-03-02T00:04:03;3.90;;;3.50;;
12654;SDS011;6392;44.644;11.448;2024-03-02T00:06:33;6.37;;;3.97;;
12654;SDS011;6392;44.644;11.448;2024-03-02T00:09:00;4.70;;;3.30;;
12654;SDS011;6392;44.644;11.448;2024-03-02T00:11:27;4.97;;;3.30;;
12654;SDS011;6392;44.644;11.448;2024-03-02T00:13:58;9.13;;;3.33;;
12654;SDS011;6392;44.644;11.448;2024-03-02T00:16:28;7.57;;;4.00;;
12654;SDS011;6392;44.644;11.448;2024-03-02T00:19:00;7.10;;;3.30;;
12654;SDS011;6392;44.644;11.448;2024-03-02T00:21:28;9.73;;;4.43;;
12654;SDS011;6392;44.644;11.448;2024-03-02T00:23:58;8.97;;;5.40;;
12654;SDS011;6392;44.644;11.448;2024-03-02T00:26:27;7.17;;;4.00;;
12654;SDS011;6392;44.644;11.448;2024-03-02T00:28:55;6.20;;;3.37;;
12654;SDS011;6392;44.644;11.448;2024-03-02T00:31:23;8.03;;;3.03;;
12654;SDS011;6392;44.644;11.448;2024-03-02T00:33:50;6.83;;;2.90;;
12654;SDS011;6392;44.644;11.448;2024-03-02T00:36:24;6.10;;;2.77;;
12654;SDS011;6392;44.644;11.448;2024-03-02T00:38:52;7.77;;;3.07;;
12654;SDS011;6392;44.644;11.448;2024-03-02T00:41:22;4.93;;;2.37;;
12654;SDS011;6392;44.644;11.448;2024-03-02T00:43:57;7.60;;;2.73;;
12654;SDS011;6392;44.644;11.448;2024-03-02T00:46:26;5.33;;;2.93;;
12654;SDS011;6392;44.644;11.448;2024-03-02T00:48:56;8.33;;;2.73;;
12654;SDS011;6392;44.644;11.448;2024-03-02T00:51:25;6.83;;;2.80;;
12654;SDS011;6392;44.644;11.448;2024-03-02T00:53:54;7.07;;;2.50;;
12654;SDS011;6392;44.644;11.448;2024-03-02T00:56:23;5.73;;;2.30;;
12654;SDS011;6392;44.644;11.448;2024-03-02T00:58:51;6.90;;;2.60;;
12654;SDS011;6392;44.644;11.448;2024-03-02T01:01:18;6.83;;;3.00;;
12654;SDS011;6392;44.644;11.448;2024-03-02T01:03:46;6.97;;;2.53;;
12654;SDS011;6392;44.644;11.448;2024-03-02T01:06:14;6.10;;;2.30;;
12654;SDS011;6392;44.644;11.448;2024-03-02T01:08:41;5.60;;;2.40;;
12654;SDS011;6392;44.644;11.448;2024-03-02T01:11:08;7.07;;;2.40;;
12654;SDS011;6392;44.644;11.448;2024-03-02T01:13:37;8.97;;;3.60;;
12654;SDS011;6392;44.644;11.448;2024-03-02T01:16:04;7.73;;;3.00;;
12654;SDS011;6392;44.644;11.448;2024-03-02T01:18:32;7.97;;;2.60;;
12654;SDS011;6392;44.644;11.448;2024-03-02T01:20:59;4.80;;;2.80;;
12654;SDS011;6392;44.644;11.448;2024-03-02T01:23:26;8.27;;;3.13;;
12654;SDS011;6392;44.644;11.448;2024-03-02T01:25:53;6.23;;;3.50;;
12654;SDS011;6392;44.644;11.448;2024-03-02T01:28:21;7.47;;;2.60;;
12654;SDS011;6392;44.644;11.448;2024-03-02T01:30:49;7.30;;;2.80;;
12654;SDS011;6392;44.644;11.448;2024-03-02T01:33:16;7.90;;;2.57;;
12654;SDS011;6392;44.644;11.448;2024-03-02T01:35:44;9.63;;;2.93;;
12654;SDS011;6392;44.644;11.448;2024-03-02T01:38:11;9.17;;;2.80;;
12654;SDS011;6392;44.644;11.448;2024-03-02T01:40:38;7.30;;;2.63;;
12654;SDS011;6392;44.644;11.448;2024-03-02T01:43:05;7.17;;;2.60;;
12654;SDS011;6392;44.644;11.448;2024-03-02T01:45:32;5.47;;;2.53;;
12654;SDS011;6392;44.644;11.448;2024-03-02T01:48:02;7.10;;;2.70;;
12654;SDS011;6392;44.644;11.448;2024-03-02T01:50:30;8.80;;;2.80;;
12654;SDS011;6392;44.644;11.448;2024-03-02T01:52:58;7.23;;;2.77;;
12654;SDS011;6392;44.644;11.448;2024-03-02T01:55:26;5.60;;;2.27;;
12654;SDS011;6392;44.644;11.448;2024-03-02T01:57:55;6.17;;;2.83;;
12654;SDS011;6392;44.644;11.448;2024-03-02T02:00:22;13.80;;;2.90;;
12654;SDS011;6392;44.644;11.448;2024-03-02T02:03:04;10.80;;;3.50;;
12654;SDS011;6392;44.644;11.448;2024-03-02T02:05:32;7.70;;;2.40;;
12654;SDS011;6392;44.644;11.448;2024-03-02T02:08:00;8.57;;;2.63;;
12654;SDS011;6392;44.644;11.448;2024-03-02T02:10:27;9.10;;;2.27;;
12654;SDS011;6392;44.644;11.448;2024-03-02T02:12:54;3.30;;;2.30;;
12654;SDS011;6392;44.644;11.448;2024-03-02T02:15:25;10.10;;;2.63;;
12654;SDS011;6392;44.644;11.448;2024-03-02T02:17:53;6.93;;;2.57;;
12654;SDS011;6392;44.644;11.448;2024-03-02T02:20:21;5.03;;;2.53;;
12654;SDS011;6392;44.644;11.448;2024-03-02T02:22:55;5.77;;;2.47;;
12654;SDS011;6392;44.644;11.448;2024-03-02T02:25:22;8.37;;;2.03;;
12654;SDS011;6392;44.644;11.448;2024-03-02T02:27:49;6.03;;;2.37;;
12654;SDS011;6392;44.644;11.448;2024-03-02T02:30:18;9.40;;;2.70;;
12654;SDS011;6392;44.644;11.448;2024-03-02T02:32:46;6.70;;;2.17;;
12654;SDS011;6392;44.644;11.448;2024-03-02T02:35:13;5.93;;;2.77;;
12654;SDS011;6392;44.644;11.448;2024-03-02T02:37:40;7.20;;;2.30;;
12654;SDS011;6392;44.644;11.448;2024-03-02T02:40:09;4.67;;;2.63;;
12654;SDS011;6392;44.644;11.448;2024-03-02T02:42:37;4.13;;;1.93;;
12654;SDS011;6392;44.644;11.448;2024-03-02T02:45:05;8.90;;;2.53;;
12654;SDS011;6392;44.644;11.448;2024-03-02T02:47:32;8.30;;;2.23;;
12654;SDS011;6392;44.644;11.448;2024-03-02T02:50:00;7.37;;;2.63;;
12654;SDS011;6392;44.644;11.448;2024-03-02T02:52:30;5.30;;;2.10;;
12654;SDS011;6392;44.644;11.448;2024-03-02T02:55:00;10.03;;;2.20;;
12654;SDS011;6392;44.644;11.448;2024-03-02T02:57:30;7.07;;;2.30;;
12654;SDS011;6392;44.644;11.448;2024-03-02T03:00:00;6.33;;;2.30;;
12654;SDS011;6392;44.644;11.448;2024-03-02T03:02:34;7.30;;;2.50;;
12654;SDS011;6392;44.644;11.448;2024-03-02T03:05:01;4.70;;;2.63;;
12654;SDS011;6392;44.644;11.448;2024-03-02T03:07:28;6.00;;;2.57;;
12654;SDS011;6392;44.644;11.448;2024-03-02T03:09:55;6.33;;;2.27;;
12654;SDS011;6392;44.644;11.448;2024-03-02T03:12:22;3.50;;;2.40;;
12654;SDS011;6392;44.644;11.448;2024-03-02T03:14:51;7.27;;;2.37;;
12654;SDS011;6392;44.644;11.448;2024-03-02T03:17:19;4.43;;;2.70;;
12654;SDS011;6392;44.644;11.448;2024-03-02T03:19:47;6.97;;;2.77;;
12654;SDS011;6392;44.644;11.448;2024-03-02T03:22:14;5.33;;;2.63;;
12654;SDS011;6392;44.644;11.448;2024-03-02T03:24:41;6.10;;;2.40;;
12654;SDS011;6392;44.644;11.448;2024-03-02T03:27:09;7.07;;;2.60;;
12654;SDS011;6392;44.644;11.448;2024-03-02T03:29:36;6.67;;;2.80;;
12654;SDS011;6392;44.644;11.448;2024-03-02T03:32:05;7.17;;;2.20;;
12654;SDS011;6392;44.644;11.448;2024-03-02T03:34:33;5.57;;;3.03;;
12654;SDS011;6392;44.644;11.448;2024-03-02T03:37:00;6.47;;;2.87;;
12654;SDS011;6392;44.644;11.448;2024-03-02T03:39:27;4.97;;;2.47;;
12654;SDS011;6392;44.644;11.448;2024-03-02T03:41:54;5.80;;;2.77;;
12654;SDS011;6392;44.644;11.448;2024-03-02T03:44:21;5.30;;;2.60;;
12654;SDS011;6392;44.644;11.448;2024-03-02T03:46:49;3.13;;;2.60;;
12654;SDS011;6392;44.644;11.448;2024-03-02T03:49:17;3.80;;;2.70;;
12654;SDS011;6392;44.644;11.448;2024-03-02T03:51:44;5.00;;;2.53;;
12654;SDS011;6392;44.644;11.448;2024-03-02T03:54:11;5.97;;;2.50;;
12654;SDS011;6392;44.644;11.448;2024-03-02T03:56:38;3.30;;;2.50;;
12654;SDS011;6392;44.644;11.448;2024-03-02T03:59:05;5.83;;;2.33;;
12654;SDS011;6392;44.644;11.448;2024-03-02T04:01:32;4.57;;;2.50;;
12654;SDS011;6392;44.644;11.448;2024-03-02T04:03:59;4.30;;;2.20;;
12654;SDS011;6392;44.644;11.448;2024-03-02T04:06:30;3.70;;;1.93;;
12654;SDS011;6392;44.644;11.448;2024-03-02T04:08:57;6.33;;;2.80;;
12654;SDS011;6392;44.644;11.448;2024-03-02T04:11:24;6.50;;;2.57;;
12654;SDS011;6392;44.644;11.448;2024-03-02T04:13:51;4.70;;;2.70;;
12654;SDS011;6392;44.644;11.448;2024-03-02T04:16:18;5.70;;;2.47;;
12654;SDS011;6392;44.644;11.448;2024-03-02T04:18:45;4.27;;;2.50;;
12654;SDS011;6392;44.644;11.448;2024-03-02T04:21:12;4.37;;;2.47;;
12654;SDS011;6392;44.644;11.448;2024-03-02T04:23:40;3.80;;;2.60;;
12654;SDS011;6392;44.644;11.448;2024-03-02T04:26:07;3.50;;;2.40;;
12654;SDS011;6392;44.644;11.448;2024-03-02T04:28:34;3.90;;;2.43;;
12654;SDS011;6392;44.644;11.448;2024-03-02T04:31:01;3.87;;;2.70;;
12654;SDS011;6392;44.644;11.448;2024-03-02T04:33:28;5.10;;;2.70;;
12654;SDS011;6392;44.644;11.448;2024-03-02T04:35:55;4.73;;;2.30;;
12654;SDS011;6392;44.644;11.448;2024-03-02T04:38:22;6.23;;;3.10;;
12654;SDS011;6392;44.644;11.448;2024-03-02T04:40:51;5.30;;;2.70;;
12654;SDS011;6392;44.644;11.448;2024-03-02T04:43:18;7.07;;;2.80;;
12654;SDS011;6392;44.644;11.448;2024-03-02T04:45:45;6.53;;;2.70;;
12654;SDS011;6392;44.644;11.448;2024-03-02T04:48:12;5.30;;;2.53;;
12654;SDS011;6392;44.644;11.448;2024-03-02T04:50:40;7.77;;;2.57;;
12654;SDS011;6392;44.644;11.448;2024-03-02T04:53:07;5.07;;;2.50;;
12654;SDS011;6392;44.644;11.448;2024-03-02T04:55:34;5.00;;;2.90;;
12654;SDS011;6392;44.644;11.448;2024-03-02T04:58:19;5.50;;;2.13;;
12654;SDS011;6392;44.644;11.448;2024-03-02T05:00:46;4.80;;;2.77;;
12654;SDS011;6392;44.644;11.448;2024-03-02T05:03:13;6.67;;;2.87;;
12654;SDS011;6392;44.644;11.448;2024-03-02T05:05:40;7.90;;;3.60;;
12654;SDS011;6392;44.644;11.448;2024-03-02T05:08:07;4.27;;;3.00;;
12654;SDS011;6392;44.644;11.448;2024-03-02T05:10:37;5.60;;;3.40;;
12654;SDS011;6392;44.644;11.448;2024-03-02T05:13:04;5.83;;;2.73;;
12654;SDS011;6392;44.644;11.448;2024-03-02T05:15:32;5.47;;;3.03;;
12654;SDS011;6392;44.644;11.448;2024-03-02T05:17:59;5.03;;;3.20;;
12654;SDS011;6392;44.644;11.448;2024-03-02T05:20:27;6.03;;;2.50;;
12654;SDS011;6392;44.644;11.448;2024-03-02T05:22:54;4.83;;;3.10;;
12654;SDS011;6392;44.644;11.448;2024-03-02T05:25:21;3.53;;;3.23;;
12654;SDS011;6392;44.644;11.448;2024-03-02T05:27:48;4.13;;;2.67;;
12654;SDS011;6392;44.644;11.448;2024-03-02T05:30:15;4.30;;;3.07;;
12654;SDS011;6392;44.644;11.448;2024-03-02T05:32:44;4.87;;;3.17;;
12654;SDS011;6392;44.644;11.448;2024-03-02T05:35:11;6.50;;;2.80;;
12654;SDS011;6392;44.644;11.448;2024-03-02T05:37:38;5.53;;;3.10;;
12654;SDS011;6392;44.644;11.448;2024-03-02T05:40:06;5.80;;;3.10;;
12654;SDS011;6392;44.644;11.448;2024-03-02T05:42:34;4.97;;;2.33;;
12654;SDS011;6392;44.644;11.448;2024-03-02T05:45:01;3.00;;;2.73;;
12654;SDS011;6392;44.644;11.448;2024-03-02T05:47:28;3.90;;;2.77;;
12654;SDS011;6392;44.644;11.448;2024-03-02T05:49:56;5.83;;;2.53;;
12654;SDS011;6392;44.644;11.448;2024-03-02T05:52:23;4.20;;;2.50;;
12654;SDS011;6392;44.644;11.448;2024-03-02T05:54:50;4.97;;;2.83;;
12654;SDS011;6392;44.644;11.448;2024-03-02T05:57:17;6.23;;;2.83;;
12654;SDS011;6392;44.644;11.448;2024-03-02T05:59:57;3.77;;;3.00;;
12654;SDS011;6392;44.644;11.448;2024-03-02T06:02:25;4.30;;;2.93;;
12654;SDS011;6392;44.644;11.448;2024-03-02T06:04:53;6.43;;;2.90;;
12654;SDS011;6392;44.644;11.448;2024-03-02T06:07:22;3.47;;;2.40;;
12654;SDS011;6392;44.644;11.448;2024-03-02T06:09:49;4.33;;;2.63;;
12654;SDS011;6392;44.644;11.448;2024-03-02T06:12:17;4.27;;;3.20;;
12654;SDS011;6392;44.644;11.448;2024-03-02T06:14:45;7.53;;;3.07;;
12654;SDS011;6392;44.644;11.448;2024-03-02T06:17:12;6.47;;;3.43;;
12654;SDS011;6392;44.644;11.448;2024-03-02T06:19:39;3.67;;;3.10;;
12654;SDS011;6392;44.644;11.448;2024-03-02T06:22:07;4.60;;;3.27;;
12654;SDS011;6392;44.644;11.448;2024-03-02T06:24:35;5.67;;;3.63;;
12654;SDS011;6392;44.644;11.448;2024-03-02T06:27:03;8.60;;;3.00;;
12654;SDS011;6392;44.644;11.448;2024-03-02T06:29:32;4.90;;;3.07;;
12654;SDS011;6392;44.644;11.448;2024-03-02T06:31:59;5.20;;;3.30;;
12654;SDS011;6392;44.644;11.448;2024-03-02T06:34:26;4.60;;;3.07;;
12654;SDS011;6392;44.644;11.448;2024-03-02T06:36:53;5.30;;;3.67;;
12654;SDS011;6392;44.644;11.448;2024-03-02T06:39:22;4.30;;;3.30;;
12654;SDS011;6392;44.644;11.448;2024-03-02T06:41:49;3.30;;;2.77;;
12654;SDS011;6392;44.644;11.448;2024-03-02T06:44:16;4.43;;;3.37;;
12654;SDS011;6392;44.644;11.448;2024-03-02T06:46:43;3.10;;;2.80;;
12654;SDS011;6392;44.644;11.448;2024-03-02T06:49:10;4.97;;;2.60;;
12654;SDS011;6392;44.644;11.448;2024-03-02T06:51:37;4.63;;;2.60;;
12654;SDS011;6392;44.644;11.448;2024-03-02T06:54:04;4.33;;;3.17;;
12654;SDS011;6392;44.644;11.448;2024-03-02T06:56:32;3.63;;;3.07;;
12654;SDS011;6392;44.644;11.448;2024-03-02T06:58:59;4.10;;;3.60;;
12654;SDS011;6392;44.644;11.448;2024-03-02T07:01:26;5.60;;;4.00;;
12654;SDS011;6392;44.644;11.448;2024-03-02T07:03:53;6.90;;;4.63;;
12654;SDS011;6392;44.644;11.448;2024-03-02T07:06:20;6.30;;;5.17;;
12654;SDS011;6392;44.644;11.448;2024-03-02T07:08:47;6.20;;;4.37;;
12654;SDS011;6392;44.644;11.448;2024-03-02T07:11:14;5.00;;;3.80;;
12654;SDS011;6392;44.644;11.448;2024-03-02T07:13:43;5.40;;;4.20;;
12654;SDS011;6392;44.644;11.448;2024-03-02T07:16:10;5.97;;;4.63;;
12654;SDS011;6392;44.644;11.448;2024-03-02T07:18:53;6.13;;;4.57;;
12654;SDS011;6392;44.644;11.448;2024-03-02T07:21:21;6.57;;;4.93;;
12654;SDS011;6392;44.644;11.448;2024-03-02T07:23:48;5.30;;;4.67;;
12654;SDS011;6392;44.644;11.448;2024-03-02T07:26:16;6.47;;;5.67;;
12654;SDS011;6392;44.644;11.448;2024-03-02T07:28:46;5.80;;;5.20;;
12654;SDS011;6392;44.644;11.448;2024-03-02T07:31:14;6.20;;;5.23;;
12654;SDS011;6392;44.644;11.448;2024-03-02T07:33:43;5.43;;;4.90;;
12654;SDS011;6392;44.644;11.448;2024-03-02T07:36:11;6.37;;;5.00;;
12654;SDS011;6392;44.644;11.448;2024-03-02T07:38:38;5.03;;;4.30;;
12654;SDS011;6392;44.644;11.448;2024-03-02T07:41:05;6.47;;;4.30;;
12654;SDS011;6392;44.644;11.448;2024-03-02T07:43:33;6.87;;;3.90;;
12654;SDS011;6392;44.644;11.448;2024-03-02T07:46:02;4.10;;;3.67;;
12654;SDS011;6392;44.644;11.448;2024-03-02T07:48:29;6.83;;;3.80;;
12654;SDS011;6392;44.644;11.448;2024-03-02T07:50:56;4.60;;;3.30;;
12654;SDS011;6392;44.644;11.448;2024-03-02T07:53:23;3.80;;;3.40;;
12654;SDS011;6392;44.644;11.448;2024-03-02T07:55:50;7.83;;;3.53;;
12654;SDS011;6392;44.644;11.448;2024-03-02T07:58:17;3.97;;;3.67;;
12654;SDS011;6392;44.644;11.448;2024-03-02T08:00:45;4.00;;;3.60;;
12654;SDS011;6392;44.644;11.448;2024-03-02T08:03:14;4.60;;;3.87;;
12654;SDS011;6392;44.644;11.448;2024-03-02T08:05:41;4.80;;;3.00;;
12654;SDS011;6392;44.644;11.448;2024-03-02T08:08:08;5.40;;;3.60;;
12654;SDS011;6392;44.644;11.448;2024-03-02T08:10:36;4.30;;;3.53;;
12654;SDS011;6392;44.644;11.448;2024-03-02T08:13:04;5.40;;;3.63;;
12654;SDS011;6392;44.644;11.448;2024-03-02T08:15:31;4.93;;;3.70;;
12654;SDS011;6392;44.644;11.448;2024-03-02T08:17:58;5.70;;;3.93;;
12654;SDS011;6392;44.644;11.448;2024-03-02T08:20:26;5.90;;;3.27;;
12654;SDS011;6392;44.644;11.448;2024-03-02T08:22:53;4.33;;;3.27;;
12654;SDS011;6392;44.644;11.448;2024-03-02T08:25:21;7.37;;;3.07;;
12654;SDS011;6392;44.644;11.448;2024-03-02T08:27:48;4.63;;;3.37;;
12654;SDS011;6392;44.644;11.448;2024-03-02T08:30:15;6.20;;;3.83;;
12654;SDS011;6392;44.644;11.448;2024-03-02T08:32:43;5.77;;;3.10;;
12654;SDS011;6392;44.644;11.448;2024-03-02T08:35:10;3.50;;;2.87;;
12654;SDS011;6392;44.644;11.448;2024-03-02T08:37:39;3.13;;;2.83;;
12654;SDS011;6392;44.644;11.448;2024-03-02T08:40:08;5.20;;;3.47;;
12654;SDS011;6392;44.644;11.448;2024-03-02T08:42:35;6.13;;;3.87;;
12654;SDS011;6392;44.644;11.448;2024-03-02T08:45:03;4.77;;;3.50;;
12654;SDS011;6392;44.644;11.448;2024-03-02T08:47:31;4.33;;;3.67;;
12654;SDS011;6392;44.644;11.448;2024-03-02T08:49:58;4.80;;;3.10;;
12654;SDS011;6392;44.644;11.448;2024-03-02T08:52:25;3.50;;;3.20;;
12654;SDS011;6392;44.644;11.448;2024-03-02T08:54:54;3.93;;;3.23;;
12654;SDS011;6392;44.644;11.448;2024-03-02T08:57:21;4.23;;;3.03;;
12654;SDS011;6392;44.644;11.448;2024-03-02T08:59:48;7.60;;;3.63;;
12654;SDS011;6392;44.644;11.448;2024-03-02T09:02:15;7.07;;;3.50;;
12654;SDS011;6392;44.644;11.448;2024-03-02T09:04:42;5.27;;;4.20;;
12654;SDS011;6392;44.644;11.448;2024-03-02T09:07:09;5.07;;;4.50;;
12654;SDS011;6392;44.644;11.448;2024-03-02T09:09:36;4.93;;;4.20;;
12654;SDS011;6392;44.644;11.448;2024-03-02T09:12:06;5.23;;;3.30;;
12654;SDS011;6392;44.644;11.448;2024-03-02T09:14:33;4.30;;;3.20;;
12654;SDS011;6392;44.644;11.448;2024-03-02T09:17:01;3.70;;;3.00;;
12654;SDS011;6392;44.644;11.448;2024-03-02T09:19:29;3.97;;;3.47;;
12654;SDS011;6392;44.644;11.448;2024-03-02T09:21:56;3.77;;;3.40;;
12654;SDS011;6392;44.644;11.448;2024-03-02T09:24:23;5.37;;;3.33;;
12654;SDS011;6392;44.644;11.448;2024-03-02T09:26:51;4.20;;;3.60;;
12654;SDS011;6392;44.644;11.448;2024-03-02T09:29:19;4.10;;;3.30;;
12654;SDS011;6392;44.644;11.448;2024-03-02T09:31:46;6.20;;;3.60;;
12654;SDS011;6392;44.644;11.448;2024-03-02T09:34:14;4.37;;;3.57;;
12654;SDS011;6392;44.644;11.448;2024-03-02T09:36:41;3.93;;;3.53;;
12654;SDS011;6392;44.644;11.448;2024-03-02T09:39:08;5.47;;;3.47;;
12654;SDS011;6392;44.644;11.448;2024-03-02T09:41:36;4.27;;;3.77;;
12654;SDS011;6392;44.644;11.448;2024-03-02T09:44:03;5.03;;;3.43;;
12654;SDS011;6392;44.644;11.448;2024-03-02T09:46:32;3.87;;;3.40;;
12654;SDS011;6392;44.644;11.448;2024-03-02T09:49:01;3.77;;;3.03;;
12654;SDS011;6392;44.644;11.448;2024-03-02T09:51:28;3.10;;;2.80;;
12654;SDS011;6392;44.644;11.448;2024-03-02T09:53:55;3.60;;;3.20;;
12654;SDS011;6392;44.644;11.448;2024-03-02T09:56:22;4.73;;;3.10;;
12654;SDS011;6392;44.644;11.448;2024-03-02T09:58:49;5.47;;;3.40;;
12654;SDS011;6392;44.644;11.448;2024-03-02T10:01:17;4.67;;;3.20;;
12654;SDS011;6392;44.644;11.448;2024-03-02T10:03:45;4.73;;;3.67;;
12654;SDS011;6392;44.644;11.448;2024-03-02T10:06:21;3.33;;;3.03;;
12654;SDS011;6392;44.644;11.448;2024-03-02T10:08:49;5.93;;;4.00;;
12654;SDS011;6392;44.644;11.448;2024-03-02T10:11:26;4.83;;;3.87;;
12654;SDS011;6392;44.644;11.448;2024-03-02T10:14:07;6.23;;;3.73;;
12654;SDS011;6392;44.644;11.448;2024-03-02T10:16:35;3.60;;;3.30;;
12654;SDS011;6392;44.644;11.448;2024-03-02T10:19:17;6.70;;;3.50;;
12654;SDS011;6392;44.644;11.448;2024-03-02T10:24:13;5.00;;;3.50;;
12654;SDS011;6392;44.644;11.448;2024-03-02T10:26:40;4.10;;;3.43;;
12654;SDS011;6392;44.644;11.448;2024-03-02T10:29:08;5.70;;;3.60;;
12654;SDS011;6392;44.644;11.448;2024-03-02T10:31:36;4.87;;;3.60;;
12654;SDS011;6392;44.644;11.448;2024-03-02T10:34:04;3.17;;;2.87;;
12654;SDS011;6392;44.644;11.448;2024-03-02T10:36:33;4.73;;;3.60;;
12654;SDS011;6392;44.644;11.448;2024-03-02T10:39:01;4.27;;;3.43;;
12654;SDS011;6392;44.644;11.448;2024-03-02T10:41:29;3.60;;;2.63;;
12654;SDS011;6392;44.644;11.448;2024-03-02T10:43:59;5.30;;;2.87;;
12654;SDS011;6392;44.644;11.448;2024-03-02T10:46:29;3.40;;;2.67;;
12654;SDS011;6392;44.644;11.448;2024-03-02T10:48:56;3.90;;;2.70;;
12654;SDS011;6392;44.644;11.448;2024-03-02T10:51:24;2.90;;;2.60;;
12654;SDS011;6392;44.644;11.448;2024-03-02T10:53:55;3.67;;;2.83;;
12654;SDS011;6392;44.644;11.448;2024-03-02T10:56:24;4.27;;;2.60;;
12654;SDS011;6392;44.644;11.448;2024-03-02T10:58:55;2.70;;;2.50;;
12654;SDS011;6392;44.644;11.448;2024-03-02T11:01:29;3.20;;;2.50;;
12654;SDS011;6392;44.644;11.448;2024-03-02T11:03:59;2.20;;;2.00;;
12654;SDS011;6392;44.644;11.448;2024-03-02T11:06:28;3.27;;;2.63;;
12654;SDS011;6392;44.644;11.448;2024-03-02T11:08:59;2.43;;;2.23;;
12654;SDS011;6392;44.644;11.448;2024-03-02T11:11:35;3.70;;;2.10;;
12654;SDS011;6392;44.644;11.448;2024-03-02T11:14:04;3.03;;;2.53;;
12654;SDS011;6392;44.644;11.448;2024-03-02T11:16:34;3.93;;;2.27;;
12654;SDS011;6392;44.644;11.448;2024-03-02T11:19:04;2.30;;;2.10;;
12654;SDS011;6392;44.644;11.448;2024-03-02T11:21:33;3.70;;;2.20;;
12654;SDS011;6392;44.644;11.448;2024-03-02T11:24:02;2.73;;;2.00;;
12654;SDS011;6392;44.644;11.448;2024-03-02T11:26:58;2.40;;;2.20;;
12654;SDS011;6392;44.644;11.448;2024-03-02T11:32:13;2.30;;;2.00;;
12654;SDS011;6392;44.644;11.448;2024-03-02T11:34:42;2.30;;;2.10;;
12654;SDS011;6392;44.644;11.448;2024-03-02T11:37:11;2.37;;;2.17;;
12654;SDS011;6392;44.644;11.448;2024-03-02T11:39:40;1.93;;;1.83;;
12654;SDS011;6392;44.644;11.448;2024-03-02T11:42:09;2.93;;;2.40;;
12654;SDS011;6392;44.644;11.448;2024-03-02T11:44:39;2.40;;;2.20;;
12654;SDS011;6392;44.644;11.448;2024-03-02T11:47:10;5.00;;;2.77;;
12654;SDS011;6392;44.644;11.448;2024-03-02T11:49:40;2.57;;;2.17;;
12654;SDS011;6392;44.644;11.448;2024-03-02T11:52:10;1.80;;;1.70;;
12654;SDS011;6392;44.644;11.448;2024-03-02T11:54:38;2.47;;;1.70;;
12654;SDS011;6392;44.644;11.448;2024-03-02T11:57:11;2.23;;;1.80;;
12654;SDS011;6392;44.644;11.448;2024-03-02T11:59:39;2.30;;;2.00;;
12654;SDS011;6392;44.644;11.448;2024-03-02T12:02:06;2.17;;;1.80;;
12654;SDS011;6392;44.644;11.448;2024-03-02T12:04:42;2.70;;;2.20;;
12654;SDS011;6392;44.644;11.448;2024-03-02T12:07:10;2.40;;;2.20;;
12654;SDS011;6392;44.644;11.448;2024-03-02T12:09:38;3.33;;;1.90;;
12654;SDS011;6392;44.644;11.448;2024-03-02T12:12:07;2.63;;;2.00;;
12654;SDS011;6392;44.644;11.448;2024-03-02T12:14:35;1.70;;;1.50;;
12654;SDS011;6392;44.644;11.448;2024-03-02T12:17:03;4.70;;;1.63;;
12654;SDS011;6392;44.644;11.448;2024-03-02T12:19:32;1.93;;;1.83;;
12654;SDS011;6392;44.644;11.448;2024-03-02T12:21:59;2.67;;;1.97;;
12654;SDS011;6392;44.644;11.448;2024-03-02T12:24:27;1.90;;;1.53;;
12654;SDS011;6392;44.644;11.448;2024-03-02T12:26:55;1.57;;;1.47;;
12654;SDS011;6392;44.644;11.448;2024-03-02T12:29:25;1.80;;;1.70;;
12654;SDS011;6392;44.644;11.448;2024-03-02T12:31:54;1.70;;;1.60;;
12654;SDS011;6392;44.644;11.448;2024-03-02T12:34:21;2.00;;;1.80;;
12654;SDS011;6392;44.644;11.448;2024-03-02T12:36:49;1.93;;;1.60;;
12654;SDS011;6392;44.644;11.448;2024-03-02T12:39:18;1.93;;;1.50;;
12654;SDS011;6392;44.644;11.448;2024-03-02T12:41:45;1.70;;;1.43;;
12654;SDS011;6392;44.644;11.448;2024-03-02T12:44:15;1.50;;;1.40;;
12654;SDS011;6392;44.644;11.448;2024-03-02T12:46:44;1.40;;;1.30;;
12654;SDS011;6392;44.644;11.448;2024-03-02T12:49:14;1.70;;;1.43;;
12654;SDS011;6392;44.644;11.448;2024-03-02T12:51:43;1.70;;;1.60;;
12654;SDS011;6392;44.644;11.448;2024-03-02T12:54:21;1.40;;;1.30;;
12654;SDS011;6392;44.644;11.448;2024-03-02T12:56:50;1.40;;;1.23;;
12654;SDS011;6392;44.644;11.448;2024-03-02T12:59:19;1.40;;;1.30;;
12654;SDS011;6392;44.644;11.448;2024-03-02T13:01:53;1.20;;;1.10;;
12654;SDS011;6392;44.644;11.448;2024-03-02T13:04:22;2.67;;;1.47;;
12654;SDS011;6392;44.644;11.448;2024-03-02T13:06:51;1.50;;;1.37;;
12654;SDS011;6392;44.644;11.448;2024-03-02T13:09:18;1.40;;;1.30;;
12654;SDS011;6392;44.644;11.448;2024-03-02T13:11:45;1.37;;;1.20;;
12654;SDS011;6392;44.644;11.448;2024-03-02T13:14:13;1.40;;;1.30;;
12654;SDS011;6392;44.644;11.448;2024-03-02T13:16:40;1.30;;;1.20;;
12654;SDS011;6392;44.644;11.448;2024-03-02T13:19:08;2.47;;;1.20;;
12654;SDS011;6392;44.644;11.448;2024-03-02T13:21:35;1.43;;;1.03;;
12654;SDS011;6392;44.644;11.448;2024-03-02T13:24:03;1.37;;;1.27;;
12654;SDS011;6392;44.644;11.448;2024-03-02T13:26:31;1.87;;;1.17;;
12654;SDS011;6392;44.644;11.448;2024-03-02T13:28:58;1.10;;;1.00;;
12654;SDS011;6392;44.644;11.448;2024-03-02T13:31:25;1.53;;;0.90;;
12654;SDS011;6392;44.644;11.448;2024-03-02T13:33:52;1.40;;;1.30;;
12654;SDS011;6392;44.644;11.448;2024-03-02T13:36:20;0.70;;;0.70;;
12654;SDS011;6392;44.644;11.448;2024-03-02T13:38:47;1.67;;;0.80;;
12654;SDS011;6392;44.644;11.448;2024-03-02T13:41:14;1.37;;;0.80;;
12654;SDS011;6392;44.644;11.448;2024-03-02T13:43:41;0.80;;;0.70;;
12654;SDS011;6392;44.644;11.448;2024-03-02T13:46:10;0.60;;;0.60;;
12654;SDS011;6392;44.644;11.448;2024-03-02T13:48:37;0.50;;;0.50;;
12654;SDS011;6392;44.644;11.448;2024-03-02T13:51:04;0.50;;;0.50;;
12654;SDS011;6392;44.644;11.448;2024-03-02T13:53:32;0.57;;;0.57;;
12654;SDS011;6392;44.644;11.448;2024-03-02T13:56:00;0.87;;;0.73;;
12654;SDS011;6392;44.644;11.448;2024-03-02T13:58:28;0.73;;;0.60;;
12654;SDS011;6392;44.644;11.448;2024-03-02T14:00:55;0.67;;;0.67;;
12654;SDS011;6392;44.644;11.448;2024-03-02T14:03:23;4.63;;;2.63;;
12654;SDS011;6392;44.644;11.448;2024-03-02T14:05:52;1.80;;;1.00;;
12654;SDS011;6392;44.644;11.448;2024-03-02T14:08:20;1.93;;;0.70;;
12654;SDS011;6392;44.644;11.448;2024-03-02T14:10:49;0.33;;;0.33;;
12654;SDS011;6392;44.644;11.448;2024-03-02T14:13:16;0.50;;;0.50;;
12654;SDS011;6392;44.644;11.448;2024-03-02T14:15:44;0.80;;;0.63;;
12654;SDS011;6392;44.644;11.448;2024-03-02T14:18:11;1.13;;;0.70;;
12654;SDS011;6392;44.644;11.448;2024-03-02T14:20:38;0.60;;;0.60;;
12654;SDS011;6392;44.644;11.448;2024-03-02T14:23:07;1.10;;;0.60;;
12654;SDS011;6392;44.644;11.448;2024-03-02T14:25:35;1.27;;;0.83;;
12654;SDS011;6392;44.644;11.448;2024-03-02T14:28:05;2.00;;;0.70;;
12654;SDS011;6392;44.644;11.448;2024-03-02T14:30:32;0.90;;;0.80;;
12654;SDS011;6392;44.644;11.448;2024-03-02T14:32:59;0.60;;;0.60;;
12654;SDS011;6392;44.644;11.448;2024-03-02T14:35:26;1.70;;;0.70;;
12654;SDS011;6392;44.644;11.448;2024-03-02T14:37:54;1.07;;;1.07;;
12654;SDS011;6392;44.644;11.448;2024-03-02T14:40:22;0.53;;;0.53;;
12654;SDS011;6392;44.644;11.448;2024-03-02T14:42:52;0.50;;;0.50;;
12654;SDS011;6392;44.644;11.448;2024-03-02T14:45:20;0.50;;;0.50;;
12654;SDS011;6392;44.644;11.448;2024-03-02T14:47:48;0.50;;;0.50;;
12654;SDS011;6392;44.644;11.448;2024-03-02T14:50:16;0.40;;;0.40;;
12654;SDS011;6392;44.644;11.448;2024-03-02T14:52:44;0.73;;;0.60;;
12654;SDS011;6392;44.644;11.448;2024-03-02T14:55:11;0.47;;;0.40;;
12654;SDS011;6392;44.644;11.448;2024-03-02T14:57:39;0.87;;;0.60;;
12654;SDS011;6392;44.644;11.448;2024-03-02T15:00:09;0.80;;;0.50;;